メインページ
METAR-TAF:

METAR-TAF

空港 :

Stewart, ブリティッシュコロンビア州, カナダ

緯度: 55-56N, 経度: 129-59W, 海抜: 7m

現時点の気象観測

当レポートは38分前の17:41(UTC)に作成
の風 3kt、南/南東から西/南西の間で変化する
気温 5°C
湿度 93%
気圧 998 hPa
視程: 4.8km
高度700ftの雲は散在している
高度1000ftの千切れ雲あり
高度3000ftの曇り
小雨, 靄

METAR: CZST 171741Z 19003KT 160V250 3SM -RA BR SCT007 BKN010 OVC030 05/04 A2948 RMK SC3SC3SC2 SLP985

時間: 10:19 (18:19 UTC)


TAF: 見つかりません

4,000以上の空港の気象観測と天気予報(METAR報とTAF報)

利用可能な観測所は地図上に黄色い丸と赤い丸で示す。

丸の上にカーソルを重ねると観測所名を参照できる。

次にクリックすると気象観測と天気予報を参照できる。

マップの切り替え:黒色「×」印の緑ボタンをクリックして拡大、「-」印の緑ボタンをクリックして縮小、緑色の三角印をクリックして隣りの地図に切り替え


METAR-TAF: